Time;durP1;ratioP1;P1;durP2;ratioP2;P2;SDS_P1;SDS_P2;PMS_P1;PMS_P2;Temp;Humidity;BMP_temperature;BMP_pressure;BME280_temperature;BME280_humidity;BME280_pressure;Samples;Min_cycle;Max_cycle;Signal;HPM_P1;HPM_P2
2023/03/05 00:01:21;;;;;;;4.25;0.80;;;;;;;;;;5060953;28;20468;-55
2023/03/05 00:03:48;;;;;;;10.63;1.50;;;;;;;;;;5078637;28;20095;-53
2023/03/05 00:06:16;;;;;;;4.18;1.00;;;;;;;;;;5095294;28;20546;-57
2023/03/05 00:08:42;;;;;;;5.90;1.58;;;;;;;;;;5078086;28;20487;-58
2023/03/05 00:11:09;;;;;;;12.48;2.38;;;;;;;;;;5096076;28;20039;-57
2023/03/05 00:13:36;;;;;;;10.40;2.95;;;;;;;;;;5094996;28;20473;-57
2023/03/05 00:16:08;;;;;;;6.38;2.83;;;;;;;;;;5095533;28;20058;-57
2023/03/05 00:18:34;;;;;;;6.95;1.92;;;;;;;;;;5095246;28;20388;-55
2023/03/05 00:21:00;;;;;;;13.85;4.10;;;;;;;;;;5095545;28;20035;-55
2023/03/05 00:23:27;;;;;;;11.45;2.70;;;;;;;;;;5095432;28;20616;-54
2023/03/05 00:25:53;;;;;;;14.27;3.17;;;;;;;;;;5095377;28;20071;-57
2023/03/05 00:28:19;;;;;;;11.27;3.20;;;;;;;;;;5095562;28;20043;-56
2023/03/05 00:30:45;;;;;;;13.23;4.20;;;;;;;;;;5094613;28;20082;-57
2023/03/05 00:33:11;;;;;;;11.90;4.32;;;;;;;;;;5059885;28;20367;-53
2023/03/05 00:35:47;;;;;;;8.80;3.45;;;;;;;;;;5095140;28;20076;-58
2023/03/05 00:38:16;;;;;;;13.65;3.90;;;;;;;;;;5076591;28;20035;-54
2023/03/05 00:40:42;;;;;;;11.10;3.85;;;;;;;;;;5094246;28;20043;-55
2023/03/05 00:43:08;;;;;;;17.23;5.50;;;;;;;;;;5077384;28;20048;-54
2023/03/05 00:45:34;;;;;;;16.92;4.10;;;;;;;;;;5094999;28;20090;-58
2023/03/05 00:48:01;;;;;;;12.45;3.28;;;;;;;;;;5094945;28;20032;-57
2023/03/05 00:50:27;;;;;;;8.57;2.67;;;;;;;;;;5095348;28;20051;-57
2023/03/05 00:52:53;;;;;;;11.45;2.25;;;;;;;;;;5094800;28;20035;-57
2023/03/05 00:55:19;;;;;;;7.45;1.63;;;;;;;;;;5094736;28;20032;-58
2023/03/05 00:57:45;;;;;;;7.80;1.50;;;;;;;;;;5094702;28;20040;-56
2023/03/05 01:00:12;;;;;;;6.38;2.15;;;;;;;;;;5076559;28;20040;-57
2023/03/05 01:02:38;;;;;;;9.55;1.80;;;;;;;;;;5076767;28;20036;-57
2023/03/05 01:05:04;;;;;;;7.20;1.75;;;;;;;;;;5094584;28;20036;-57
2023/03/05 01:07:30;;;;;;;15.85;2.10;;;;;;;;;;5094539;28;20032;-54
2023/03/05 01:09:56;;;;;;;12.35;2.47;;;;;;;;;;5094783;28;20188;-57
2023/03/05 01:12:24;;;;;;;7.85;1.73;;;;;;;;;;5095285;28;20047;-58
2023/03/05 01:14:50;;;;;;;13.02;2.72;;;;;;;;;;5093347;28;20094;-57
2023/03/05 01:17:17;;;;;;;9.85;2.45;;;;;;;;;;5076297;28;20498;-57
2023/03/05 01:19:43;;;;;;;6.60;2.42;;;;;;;;;;5059667;28;20468;-58
2023/03/05 01:22:09;;;;;;;9.88;1.45;;;;;;;;;;5094670;28;20522;-57
2023/03/05 01:24:35;;;;;;;13.52;1.65;;;;;;;;;;5093612;28;20044;-57
2023/03/05 01:27:01;;;;;;;12.18;1.92;;;;;;;;;;5076204;28;20118;-57
2023/03/05 01:29:27;;;;;;;7.60;2.92;;;;;;;;;;5076639;28;20093;-58
2023/03/05 01:31:53;;;;;;;5.90;1.70;;;;;;;;;;5076321;28;20048;-57
2023/03/05 01:34:20;;;;;;;8.82;1.52;;;;;;;;;;5075730;28;20043;-58
2023/03/05 01:36:48;;;;;;;4.90;1.05;;;;;;;;;;5094006;28;20101;-57
2023/03/05 01:39:14;;;;;;;7.45;1.45;;;;;;;;;;5094030;28;20040;-55
2023/03/05 01:41:40;;;;;;;4.40;1.02;;;;;;;;;;5093958;28;20039;-57
2023/03/05 01:44:06;;;;;;;6.20;1.20;;;;;;;;;;5093251;28;20218;-57
2023/03/05 01:46:35;;;;;;;3.08;1.10;;;;;;;;;;5093970;28;20058;-58
2023/03/05 01:49:10;;;;;;;5.60;1.40;;;;;;;;;;5093939;28;20047;-57
2023/03/05 01:51:40;;;;;;;4.45;1.45;;;;;;;;;;5076725;28;20048;-57
2023/03/05 01:54:07;;;;;;;4.50;1.37;;;;;;;;;;5094461;28;20416;-58
2023/03/05 01:56:33;;;;;;;8.27;1.48;;;;;;;;;;5093623;28;20369;-58
2023/03/05 01:59:03;;;;;;;6.55;2.03;;;;;;;;;;5076881;28;20061;-53
2023/03/05 02:01:35;;;;;;;3.92;1.00;;;;;;;;;;5093566;28;20036;-57
2023/03/05 02:04:01;;;;;;;3.70;1.15;;;;;;;;;;5093845;28;20065;-57
2023/03/05 02:06:27;;;;;;;2.35;1.00;;;;;;;;;;5093447;28;20476;-57
2023/03/05 02:08:56;;;;;;;6.18;1.48;;;;;;;;;;5075307;28;20051;-57
2023/03/05 02:11:22;;;;;;;7.00;1.30;;;;;;;;;;5093709;28;20036;-54
2023/03/05 02:13:52;;;;;;;8.63;1.95;;;;;;;;;;5093239;28;20101;-57
2023/03/05 02:16:18;;;;;;;8.45;2.13;;;;;;;;;;5075859;28;20044;-57
2023/03/05 02:18:44;;;;;;;10.73;2.10;;;;;;;;;;5093602;28;20468;-57
2023/03/05 02:21:10;;;;;;;9.73;2.42;;;;;;;;;;5093626;28;20059;-57
2023/03/05 02:23:37;;;;;;;8.93;1.73;;;;;;;;;;5075467;28;20532;-57
2023/03/05 02:26:08;;;;;;;7.28;1.00;;;;;;;;;;5059135;28;20487;-59
2023/03/05 02:28:37;;;;;;;3.63;0.70;;;;;;;;;;5094151;28;20039;-57
2023/03/05 02:31:12;;;;;;;6.97;1.88;;;;;;;;;;5059874;28;20044;-57
2023/03/05 02:33:39;;;;;;;3.63;0.85;;;;;;;;;;5093969;28;20047;-53
2023/03/05 02:36:05;;;;;;;5.07;0.90;;;;;;;;;;5094039;28;20036;-57
2023/03/05 02:38:31;;;;;;;7.07;1.80;;;;;;;;;;5093728;28;20047;-57
2023/03/05 02:40:58;;;;;;;6.50;2.80;;;;;;;;;;5092881;28;20062;-57
2023/03/05 02:43:24;;;;;;;5.75;1.67;;;;;;;;;;5075369;28;20044;-57
2023/03/05 02:45:50;;;;;;;9.90;3.05;;;;;;;;;;5076384;28;20364;-57
2023/03/05 02:48:16;;;;;;;5.63;1.30;;;;;;;;;;5093336;28;20036;-57
2023/03/05 02:50:43;;;;;;;2.92;0.93;;;;;;;;;;5058673;28;20040;-57
2023/03/05 02:53:09;;;;;;;7.60;0.95;;;;;;;;;;5093183;28;20043;-58
2023/03/05 02:55:35;;;;;;;5.93;0.70;;;;;;;;;;5093339;28;20130;-58
2023/03/05 02:58:01;;;;;;;3.13;0.40;;;;;;;;;;5093282;28;20066;-58
2023/03/05 03:00:28;;;;;;;2.50;0.50;;;;;;;;;;5074918;28;20500;-57
2023/03/05 03:02:54;;;;;;;3.10;0.40;;;;;;;;;;5093574;28;20119;-57
2023/03/05 03:05:20;;;;;;;2.33;0.52;;;;;;;;;;5079064;28;20051;-55
2023/03/05 03:07:46;;;;;;;1.45;0.60;;;;;;;;;;5096822;28;20054;-52
2023/03/05 03:10:12;;;;;;;3.42;0.60;;;;;;;;;;5096765;28;20135;-57
2023/03/05 03:12:39;;;;;;;2.97;0.50;;;;;;;;;;5078886;28;20482;-55
2023/03/05 03:15:05;;;;;;;3.47;0.65;;;;;;;;;;5078758;28;20050;-57
2023/03/05 03:17:34;;;;;;;6.20;1.42;;;;;;;;;;5078736;28;20529;-57
2023/03/05 03:20:00;;;;;;;12.43;1.23;;;;;;;;;;5078510;28;20122;-57
2023/03/05 03:22:26;;;;;;;6.82;1.10;;;;;;;;;;5096532;28;20040;-57
2023/03/05 03:24:52;;;;;;;7.07;0.90;;;;;;;;;;5097336;28;20040;-57
2023/03/05 03:27:19;;;;;;;7.60;1.50;;;;;;;;;;5078622;28;20048;-56
2023/03/05 03:29:45;;;;;;;1.73;0.90;;;;;;;;;;5078590;28;20040;-57
2023/03/05 03:32:11;;;;;;;2.10;0.93;;;;;;;;;;5078390;28;20043;-58
2023/03/05 03:34:37;;;;;;;3.72;1.10;;;;;;;;;;5078249;28;20123;-54
2023/03/05 03:37:03;;;;;;;5.60;2.13;;;;;;;;;;5096259;28;20047;-58
2023/03/05 03:39:29;;;;;;;9.65;3.08;;;;;;;;;;5095364;28;20040;-57
2023/03/05 03:41:55;;;;;;;7.68;2.97;;;;;;;;;;5096163;28;20048;-57
2023/03/05 03:44:21;;;;;;;8.73;3.15;;;;;;;;;;5079110;28;20453;-59
2023/03/05 03:46:48;;;;;;;6.78;3.63;;;;;;;;;;5096055;28;20063;-58
2023/03/05 03:49:18;;;;;;;7.15;4.00;;;;;;;;;;5096019;28;20040;-57
2023/03/05 03:51:45;;;;;;;7.10;3.42;;;;;;;;;;5096062;28;20054;-55
2023/03/05 03:54:11;;;;;;;7.95;3.13;;;;;;;;;;5095639;28;20472;-58
2023/03/05 03:56:46;;;;;;;7.95;2.38;;;;;;;;;;5096530;28;20044;-58
2023/03/05 03:59:12;;;;;;;5.03;1.85;;;;;;;;;;5095807;28;20089;-58
2023/03/05 04:01:38;;;;;;;5.28;1.70;;;;;;;;;;5061505;28;20090;-57
2023/03/05 04:04:04;;;;;;;5.80;2.55;;;;;;;;;;5077962;28;20040;-59
2023/03/05 04:06:31;;;;;;;6.53;3.22;;;;;;;;;;5077576;28;20066;-58
2023/03/05 04:08:57;;;;;;;9.27;4.13;;;;;;;;;;5095296;28;20488;-58
2023/03/05 04:11:23;;;;;;;12.10;5.05;;;;;;;;;;5095600;28;20046;-56
2023/03/05 04:13:49;;;;;;;10.05;4.35;;;;;;;;;;5077167;28;20480;-57
2023/03/05 04:16:15;;;;;;;8.35;3.42;;;;;;;;;;5076358;28;20051;-57
2023/03/05 04:18:42;;;;;;;5.10;1.90;;;;;;;;;;5095427;28;20043;-56
2023/03/05 04:21:08;;;;;;;10.05;3.03;;;;;;;;;;5095426;28;20079;-57
2023/03/05 04:23:35;;;;;;;7.30;2.20;;;;;;;;;;5077214;28;20040;-57
2023/03/05 04:26:01;;;;;;;8.40;2.83;;;;;;;;;;5076425;28;20047;-57
2023/03/05 04:28:27;;;;;;;8.30;3.42;;;;;;;;;;5095246;28;20054;-57
2023/03/05 04:30:53;;;;;;;15.27;2.70;;;;;;;;;;5077367;28;20101;-57
2023/03/05 04:33:19;;;;;;;6.85;1.63;;;;;;;;;;5095079;28;20036;-57
2023/03/05 04:35:45;;;;;;;6.80;1.80;;;;;;;;;;5094820;28;20131;-58
2023/03/05 04:38:11;;;;;;;11.25;2.35;;;;;;;;;;5095069;28;20119;-58
2023/03/05 04:40:37;;;;;;;4.50;1.52;;;;;;;;;;5095058;28;20057;-57
2023/03/05 04:43:05;;;;;;;3.80;1.10;;;;;;;;;;5094666;28;20534;-57
2023/03/05 04:45:31;;;;;;;3.70;1.10;;;;;;;;;;5076895;28;20050;-59
2023/03/05 04:47:57;;;;;;;10.15;2.65;;;;;;;;;;5094879;28;20098;-58
2023/03/05 04:50:24;;;;;;;7.55;2.08;;;;;;;;;;5094832;28;20040;-58
2023/03/05 04:52:50;;;;;;;9.57;3.08;;;;;;;;;;5094757;28;20040;-57
2023/03/05 04:55:16;;;;;;;9.18;3.28;;;;;;;;;;5094644;28;20044;-57
2023/03/05 04:57:43;;;;;;;10.38;3.58;;;;;;;;;;5060142;28;20126;-57
2023/03/05 05:00:13;;;;;;;12.10;3.08;;;;;;;;;;5076808;28;20131;-58
2023/03/05 05:02:40;;;;;;;13.97;3.37;;;;;;;;;;5077104;28;20047;-57
2023/03/05 05:05:06;;;;;;;10.93;4.40;;;;;;;;;;5076543;28;20040;-57
2023/03/05 05:07:32;;;;;;;11.38;3.60;;;;;;;;;;5094574;28;20122;-57
2023/03/05 05:09:58;;;;;;;7.07;3.35;;;;;;;;;;5076363;28;20535;-57
2023/03/05 05:12:27;;;;;;;5.88;3.42;;;;;;;;;;5095256;28;20083;-57
2023/03/05 05:14:53;;;;;;;5.82;3.00;;;;;;;;;;5094134;28;20387;-58
2023/03/05 05:17:19;;;;;;;8.35;3.47;;;;;;;;;;5076347;28;20044;-57
2023/03/05 05:19:45;;;;;;;6.93;2.80;;;;;;;;;;5094351;28;20137;-57
2023/03/05 05:22:11;;;;;;;9.35;3.83;;;;;;;;;;5076726;28;20407;-57
2023/03/05 05:24:37;;;;;;;10.98;3.45;;;;;;;;;;5083815;22;20044;-58
2023/03/05 05:27:03;;;;;;;6.13;2.78;;;;;;;;;;5092704;28;20050;-57
2023/03/05 05:29:29;;;;;;;4.60;2.17;;;;;;;;;;5093019;28;20075;-58
2023/03/05 05:31:55;;;;;;;8.13;2.38;;;;;;;;;;5094227;28;20051;-58
2023/03/05 05:34:24;;;;;;;7.05;1.30;;;;;;;;;;5071037;28;20042;-58
2023/03/05 05:36:50;;;;;;;3.75;1.38;;;;;;;;;;5084131;28;20090;-57
2023/03/05 05:39:16;;;;;;;3.30;1.30;;;;;;;;;;5093780;28;20048;-57
2023/03/05 05:41:42;;;;;;;8.20;1.10;;;;;;;;;;5075905;28;20051;-57
2023/03/05 05:44:08;;;;;;;6.55;1.33;;;;;;;;;;5091910;28;20028;-57
2023/03/05 05:46:34;;;;;;;5.50;1.23;;;;;;;;;;5094552;28;20123;-57
2023/03/05 05:49:00;;;;;;;4.10;1.50;;;;;;;;;;5093987;28;20048;-57
2023/03/05 05:51:26;;;;;;;4.78;1.13;;;;;;;;;;5093904;28;20093;-57
2023/03/05 05:53:52;;;;;;;5.70;1.63;;;;;;;;;;5093105;28;20085;-57
2023/03/05 05:56:19;;;;;;;4.13;1.80;;;;;;;;;;5092731;28;20040;-57
2023/03/05 05:58:46;;;;;;;7.43;1.70;;;;;;;;;;5092906;28;20084;-57
2023/03/05 06:01:17;;;;;;;4.30;1.25;;;;;;;;;;5091132;28;20036;-57
2023/03/05 06:03:43;;;;;;;;;;;2.90;99.90;;;;;;5093135;28;20032;-58
2023/03/05 06:06:10;;;;;;;5.90;1.60;;;;;;;;;;5093899;28;19923;-57
2023/03/05 06:08:36;;;;;;;6.93;1.45;;;;;;;;;;5091519;28;20054;-57
2023/03/05 06:11:02;;;;;;;3.90;0.73;;;;;;;;;;5092801;28;20044;-57
2023/03/05 06:13:28;;;;;;;6.25;1.20;;;;;;;;;;5092485;28;21893;-57
2023/03/05 06:15:58;;;;;;;5.00;1.40;;;;;;;;;;5093719;28;20040;-57
2023/03/05 06:18:24;;;;;;;4.55;1.13;;;;;;;;;;5094155;28;20043;-57
2023/03/05 06:20:56;;;;;;;3.17;0.73;;;;;;;;;;5093323;28;20487;-57
2023/03/05 06:23:22;;;;;;;8.80;1.67;;;;;;;;;;5090991;28;20044;-57
2023/03/05 06:25:48;;;;;;;5.32;1.20;;;;;;;;;;5092684;28;20109;-57
2023/03/05 06:28:14;;;;;;;5.78;1.25;;;;;;;;;;5058752;28;20051;-57
2023/03/05 06:30:40;;;;;;;6.22;1.10;;;;;;;;;;5093178;28;20498;-57
2023/03/05 06:33:06;;;;;;;6.35;0.93;;;;;;;;;;5071002;28;20135;-56
2023/03/05 06:35:33;;;;;;;9.30;1.73;;;;;;;;;;5072098;28;20093;-58
2023/03/05 06:37:59;;;;;;;5.50;0.80;;;;;;;;;;5059483;28;20553;-57
2023/03/05 06:40:25;;;;;;;4.30;0.90;;;;;;;;;;5079698;28;20480;-58
2023/03/05 06:42:51;;;;;;;5.40;0.90;;;;;;;;;;5096858;28;20047;-58
2023/03/05 06:45:17;;;;;;;3.03;0.95;;;;;;;;;;5079605;28;20055;-57
2023/03/05 06:47:43;;;;;;;2.78;0.63;;;;;;;;;;5079914;28;20036;-59
2023/03/05 06:50:10;;;;;;;5.82;1.25;;;;;;;;;;5096868;28;20472;-55
2023/03/05 06:52:39;;;;;;;8.18;1.58;;;;;;;;;;5078371;28;20051;-57
2023/03/05 06:55:05;;;;;;;6.30;2.45;;;;;;;;;;5061233;28;20036;-57
2023/03/05 06:57:31;;;;;;;6.60;2.80;;;;;;;;;;5078684;28;20122;-53
2023/03/05 06:59:57;;;;;;;10.75;3.20;;;;;;;;;;5078881;28;20075;-58
2023/03/05 07:02:23;;;;;;;10.85;3.45;;;;;;;;;;5096994;28;20379;-58
2023/03/05 07:04:49;;;;;;;8.52;3.70;;;;;;;;;;5095922;28;20047;-57
2023/03/05 07:07:15;;;;;;;13.20;5.60;;;;;;;;;;5094767;28;20048;-57
2023/03/05 07:09:44;;;;;;;9.45;5.18;;;;;;;;;;5095900;28;20071;-55
2023/03/05 07:12:10;;;;;;;6.18;3.88;;;;;;;;;;5096750;28;20097;-57
2023/03/05 07:14:37;;;;;;;7.30;3.67;;;;;;;;;;5060105;28;20047;-57
2023/03/05 07:17:05;;;;;;;9.25;2.92;;;;;;;;;;5096297;28;20380;-59
2023/03/05 07:19:31;;;;;;;6.82;1.50;;;;;;;;;;5078400;28;20046;-58
2023/03/05 07:21:57;;;;;;;14.18;1.88;;;;;;;;;;5078300;28;20385;-58
2023/03/05 07:24:28;;;;;;;7.55;2.67;;;;;;;;;;5077510;28;20491;-56
2023/03/05 07:26:55;;;;;;;5.85;2.40;;;;;;;;;;5062801;28;20044;-58
2023/03/05 07:29:22;;;;;;;8.82;3.50;;;;;;;;;;5092152;28;20079;-57
2023/03/05 07:31:48;;;;;;;6.57;3.20;;;;;;;;;;5045837;28;20051;-57
2023/03/05 07:34:14;;;;;;;8.05;3.25;;;;;;;;;;5068346;28;20534;-57
2023/03/05 07:36:41;;;;;;;10.30;3.42;;;;;;;;;;5091119;28;20043;-56
2023/03/05 07:39:07;;;;;;;8.95;3.15;;;;;;;;;;5078442;28;20376;-58
2023/03/05 07:41:34;;;;;;;8.85;3.55;;;;;;;;;;5075984;28;20510;-59
2023/03/05 07:44:00;;;;;;;9.48;3.10;;;;;;;;;;5084651;28;20469;-57
2023/03/05 07:46:27;;;;;;;9.30;2.60;;;;;;;;;;5074855;28;20051;-57
2023/03/05 07:48:53;;;;;;;9.48;2.45;;;;;;;;;;5093964;28;20058;-57
2023/03/05 07:51:19;;;;;;;7.57;2.72;;;;;;;;;;5095267;28;20440;-57
2023/03/05 07:53:46;;;;;;;8.35;3.40;;;;;;;;;;5060686;28;20039;-58
2023/03/05 07:56:13;;;;;;;6.75;2.80;;;;;;;;;;5095651;28;20050;-56
2023/03/05 07:58:39;;;;;;;7.53;2.55;;;;;;;;;;5095148;28;20040;-57
2023/03/05 08:01:12;;;;;;;6.70;2.35;;;;;;;;;;5076504;28;20372;-55
2023/03/05 08:03:38;;;;;;;4.65;1.98;;;;;;;;;;5065290;28;20059;-58
2023/03/05 08:06:05;;;;;;;6.88;1.80;;;;;;;;;;5074471;28;20044;-58
2023/03/05 08:08:31;;;;;;;7.43;1.67;;;;;;;;;;5094040;28;20166;-55
2023/03/05 08:11:02;;;;;;;8.07;1.48;;;;;;;;;;5077365;28;20043;-57
2023/03/05 08:13:28;;;;;;;;;;;;;;;;;;5060748;28;20140;-54
2023/03/05 08:15:54;;;;;;;2.13;0.52;;;;;;;;;;5095254;28;20356;-56
2023/03/05 08:18:20;;;;;;;3.60;0.80;;;;;;;;;;5083387;23;20075;-54
2023/03/05 08:20:46;;;;;;;4.25;1.20;;;;;;;;;;5106588;28;20084;-56
2023/03/05 08:23:12;;;;;;;6.50;1.20;;;;;;;;;;5076081;28;20050;-58
2023/03/05 08:25:38;;;;;;;7.72;3.00;;;;;;;;;;5112151;28;20051;-58
2023/03/05 08:28:04;;;;;;;5.40;2.13;;;;;;;;;;5095865;28;20042;-55
2023/03/05 08:30:30;;;;;;;6.60;1.20;;;;;;;;;;5095261;28;20508;-54
2023/03/05 08:32:56;;;;;;;6.78;1.33;;;;;;;;;;5115889;28;20062;-56
2023/03/05 08:35:23;;;;;;;2.22;0.88;;;;;;;;;;5114026;28;20365;-55
2023/03/05 08:37:49;;;;;;;4.90;1.05;;;;;;;;;;5115737;28;20081;-57
2023/03/05 08:40:16;;;;;;;3.10;0.80;;;;;;;;;;5078515;28;20052;-58
2023/03/05 08:42:43;;;;;;;9.23;2.20;;;;;;;;;;5079454;28;20467;-58
2023/03/05 08:45:09;;;;;;;5.28;1.42;;;;;;;;;;5113837;28;20122;-55
2023/03/05 08:47:35;;;;;;;4.93;0.90;;;;;;;;;;5113945;28;20486;-56
2023/03/05 08:50:01;;;;;;;5.18;0.70;;;;;;;;;;5093397;27;20491;-58
2023/03/05 08:52:27;;;;;;;14.05;2.42;;;;;;;;;;5087344;28;20043;-57
2023/03/05 08:54:53;;;;;;;6.20;1.48;;;;;;;;;;5086604;28;20035;-56
2023/03/05 08:57:19;;;;;;;4.32;0.90;;;;;;;;;;5115156;28;20119;-54
2023/03/05 08:59:45;;;;;;;5.72;0.90;;;;;;;;;;5068290;28;20454;-58
2023/03/05 09:02:12;;;;;;;7.38;1.20;;;;;;;;;;5076024;28;20097;-56
2023/03/05 09:04:38;;;;;;;7.60;1.95;;;;;;;;;;5060088;28;20469;-56
2023/03/05 09:07:04;;;;;;;7.43;1.92;;;;;;;;;;5096896;28;20044;-57
2023/03/05 09:09:31;;;;;;;11.70;1.65;;;;;;;;;;5087804;28;20047;-56
2023/03/05 09:11:58;;;;;;;7.70;1.25;;;;;;;;;;5113908;28;20055;-56
2023/03/05 09:14:26;;;;;;;7.50;1.02;;;;;;;;;;5114736;28;20049;-56
2023/03/05 09:16:52;;;;;;;6.03;0.80;;;;;;;;;;5095331;28;20036;-56
2023/03/05 09:19:18;;;;;;;6.35;0.60;;;;;;;;;;5115733;27;20046;-59
2023/03/05 09:21:45;;;;;;;4.47;1.20;;;;;;;;;;5116535;27;20047;-56
2023/03/05 09:24:11;;;;;;;9.63;1.02;;;;;;;;;;5135162;27;20031;-56
2023/03/05 09:26:37;;;;;;;6.03;0.70;;;;;;;;;;5098960;27;20046;-55
2023/03/05 09:29:06;;;;;;;4.95;0.90;;;;;;;;;;5097441;28;20389;-57
2023/03/05 09:31:32;;;;;;;3.92;0.80;;;;;;;;;;5114127;28;20471;-58
2023/03/05 09:33:58;;;;;;;3.08;0.82;;;;;;;;;;5101573;27;20092;-55
2023/03/05 09:36:25;;;;;;;10.48;0.93;;;;;;;;;;5135044;27;20039;-56
2023/03/05 09:38:52;;;;;;;5.88;1.17;;;;;;;;;;5134338;27;20441;-54
2023/03/05 09:41:18;;;;;;;7.88;1.00;;;;;;;;;;5135483;27;20053;-57
2023/03/05 09:43:59;;;;;;;9.40;1.08;;;;;;;;;;5134903;27;20047;-56
2023/03/05 09:46:35;;;;;;;3.83;0.93;;;;;;;;;;5134587;27;20103;-56
2023/03/05 09:49:19;;;;;;;4.72;0.80;;;7.00;99.90;;;;;;5100053;27;20047;-56
2023/03/05 09:51:49;;;;;;;7.78;0.90;;;;;;;;;;5134920;27;20043;-56
2023/03/05 09:54:24;;;;;;;8.02;1.05;;;;;;;;;;5134755;27;20134;-55
2023/03/05 09:56:55;;;;;;;4.97;1.20;;;;;;;;;;5133938;28;20041;-56
2023/03/05 09:59:27;;;;;;;7.18;1.90;;;;;;;;;;5129546;27;20557;-56
2023/03/05 10:01:57;;;;;;;10.23;0.90;;;;;;;;;;5114161;28;20131;-56
2023/03/05 10:04:37;;;;;;;5.80;1.50;;;;;;;;;;5096202;28;20134;-57
2023/03/05 10:07:11;;;;;;;5.45;0.95;;;;;;;;;;5111904;28;20043;-56
2023/03/05 10:09:43;;;;;;;11.27;1.40;;;;;;;;;;5093991;28;20126;-56
2023/03/05 10:12:17;;;;;;;7.93;0.70;;;;;;;;;;5099172;27;20355;-59
2023/03/05 10:14:43;;;;;;;6.22;0.90;;;;;;;;;;5103850;27;20035;-56
2023/03/05 10:17:25;;;;;;;5.78;0.93;;;;;;;;;;5108227;28;20526;-56
2023/03/05 10:20:06;;;;;;;4.25;0.70;;;;;;;;;;5117921;28;20040;-57
2023/03/05 10:22:35;;;;;;;8.48;1.00;;;;;;;;;;5137122;27;20035;-58
2023/03/05 10:25:20;;;;;;;6.80;0.90;;;;;;;;;;5120203;27;20412;-56
2023/03/05 10:27:51;;;;;;;6.85;1.40;;;;;;;;;;5119508;27;20043;-57
2023/03/05 10:30:28;;;;;;;4.80;1.58;;;;;;;;;;5138839;27;20039;-56
2023/03/05 10:32:59;;;;;;;5.97;0.77;;;;;;;;;;5138559;27;20035;-54
2023/03/05 10:35:34;;;;;;;5.63;0.70;;;;;;;;;;5136741;27;20060;-60
2023/03/05 10:38:04;;;;;;;9.35;1.77;;;;;;;;;;5137762;27;20462;-56
2023/03/05 10:40:33;;;;;;;13.15;1.45;;;;;;;;;;5126804;27;20078;-56
2023/03/05 10:43:17;;;;;;;9.05;1.10;;;;;;;;;;5115559;27;20043;-57
2023/03/05 10:45:45;;;;;;;2.03;1.15;;;;;;;;;;5138191;27;20065;-55
2023/03/05 10:48:43;;;;;;;7.57;1.10;;;8.10;99.90;;;;;;5120082;27;20043;-56
2023/03/05 10:51:14;;;;;;;7.95;1.10;;;;;;;;;;5137199;27;20035;-57
2023/03/05 10:53:40;;;;;;;;;;;;;;;;;;5120321;27;20043;-55
2023/03/05 10:56:06;;;;;;;4.55;1.00;;;;;;;;;;5135447;27;20240;-56
2023/03/05 10:58:32;;;;;;;5.68;0.95;;;;;;;;;;5108041;27;20043;-55
2023/03/05 11:01:00;;;;;;;8.55;1.55;;;;;;;;;;5136453;27;20031;-56
2023/03/05 11:03:26;;;;;;;6.28;0.90;;;;;;;;;;5129941;27;20034;-56
2023/03/05 11:06:00;;;;;;;5.63;1.55;;;;;;;;;;5117990;27;20039;-56
2023/03/05 11:08:31;;;;;;;9.63;1.00;;;;;;;;;;5087812;27;20386;-57
2023/03/05 11:11:02;;;;;;;3.05;0.65;;;;;;;;;;5136570;27;20110;-58
2023/03/05 11:13:28;;;;;;;5.40;0.75;;;;;;;;;;5137286;27;20129;-57
2023/03/05 11:15:58;;;;;;;3.30;0.70;;;;;;;;;;5119409;27;20043;-56
2023/03/05 11:18:25;;;;;;;4.15;0.60;;;;;;;;;;5109460;27;20061;-57
2023/03/05 11:20:51;;;;;;;6.05;0.90;;;;;;;;;;5136546;27;20066;-56
2023/03/05 11:23:18;;;;;;;5.50;1.10;;;;;;;;;;5101379;27;20383;-59
2023/03/05 11:25:53;;;;;;;5.90;0.82;;;;;;;;;;5116353;27;20050;-56
2023/03/05 11:28:24;;;;;;;5.05;0.55;;;;;;;;;;5114007;27;20126;-57
2023/03/05 11:30:55;;;;;;;7.15;0.77;;;;;;;;;;5125323;27;20067;-56
2023/03/05 11:33:22;;;;;;;6.85;0.80;;;;;;;;;;5109153;27;20043;-59
2023/03/05 11:35:49;;;;;;;4.82;0.80;;;;;;;;;;5118664;27;20039;-56
2023/03/05 11:38:25;;;;;;;5.15;0.93;;;;;;;;;;5118895;27;20125;-56
2023/03/05 11:40:52;;;;;;;3.55;0.80;;;;;;;;;;5118144;27;20035;-57
2023/03/05 11:43:21;;;;;;;4.28;0.93;;;;;;;;;;5136815;27;20133;-56
2023/03/05 11:45:50;;;;;;;3.58;0.93;;;;;;;;;;5101853;27;20085;-55
2023/03/05 11:48:21;;;;;;;7.65;0.90;;;;;;;;;;5100631;27;20070;-54
2023/03/05 11:50:51;;;;;;;1.85;0.63;;;;;;;;;;5137371;27;20051;-56
2023/03/05 11:53:23;;;;;;;3.38;0.90;;;;;;;;;;5099237;27;20047;-56
2023/03/05 11:55:52;;;;;;;2.55;0.40;;;;;;;;;;5135583;27;20122;-57
2023/03/05 11:58:18;;;;;;;1.58;0.50;;;;;;;;;;5133786;27;20043;-56
2023/03/05 12:00:44;;;;;;;2.15;0.43;;;;;;;;;;5137141;27;20039;-58
2023/03/05 12:03:13;;;;;;;4.22;0.80;;;;;;;;;;5135954;27;20058;-56
2023/03/05 12:05:41;;;;;;;5.90;0.90;;;;;;;;;;5136264;27;20039;-56
2023/03/05 12:08:11;;;;;;;3.75;0.68;;;;;;;;;;5099587;27;20070;-56
2023/03/05 12:10:37;;;;;;;3.53;0.57;;;;;;;;;;5115564;27;20035;-56
2023/03/05 12:13:22;;;;;;;3.33;0.80;;;;;;;;;;5118771;27;20050;-55
2023/03/05 12:15:57;;;;;;;3.80;0.85;;;;;;;;;;5117673;27;20062;-56
2023/03/05 12:18:29;;;;;;;6.68;0.77;;;;;;;;;;5100992;27;20072;-55
2023/03/05 12:20:55;;;;;;;9.15;2.05;;;;;;;;;;5117909;27;20054;-59
2023/03/05 12:23:21;;;;;;;6.25;1.38;;;;;;;;;;5133299;27;20031;-56
2023/03/05 12:25:53;;;;;;;4.10;0.50;;;;;;;;;;5115447;27;20183;-56
2023/03/05 12:28:35;;;;;;;2.45;0.40;;;;;;;;;;5114517;27;20043;-57
2023/03/05 12:31:02;;;;;;;3.92;0.60;;;;;;;;;;5098344;27;20054;-56
2023/03/05 12:33:28;;;;;;;8.52;0.68;;;;;;;;;;5099482;27;20099;-55
2023/03/05 12:36:14;;;;;;;3.42;0.75;;;;;;;;;;5079448;28;20055;-58
2023/03/05 12:38:40;;;;;;;7.95;1.10;;;;;;;;;;5095604;28;20043;-56
2023/03/05 12:41:33;;;;;;;4.32;0.88;;;;;;;;;;5134261;27;20042;-57
2023/03/05 12:44:05;;;;;;;4.68;0.70;;;;;;;;;;5129699;27;20193;-56
2023/03/05 12:46:34;;;;;;;3.00;0.65;;;;;;;;;;5116327;27;20047;-57
2023/03/05 12:49:25;;;;;;;7.13;0.70;;;;;;;;;;5098503;27;20035;-58
2023/03/05 12:51:56;;;;;;;3.55;0.73;;;;;;;;;;5115950;27;20039;-57
2023/03/05 12:54:38;;;;;;;2.83;0.73;;;;;;;;;;5120784;27;20043;-57
2023/03/05 12:57:22;;;;;;;2.45;0.80;;;;;;;;;;5115640;27;20061;-56
2023/03/05 13:00:03;;;;;;;2.58;0.50;;;;;;;;;;5098140;27;20134;-57
2023/03/05 13:02:38;;;;;;;4.63;0.80;;;;;;;;;;5133788;27;20043;-56
2023/03/05 13:05:16;;;;;;;3.28;0.60;;;;;;;;;;5115900;27;20046;-57
2023/03/05 13:07:42;;;;;;;2.30;0.70;;;;;;;;;;5134025;27;20050;-57
2023/03/05 13:10:21;;;;;;;6.10;0.77;;;;;;;;;;5115158;27;20578;-58
2023/03/05 13:12:52;;;;;;;2.78;0.80;;;;;;;;;;5133614;27;20122;-57
2023/03/05 13:15:18;;;;;;;6.35;0.70;;;;;;;;;;5115195;27;20118;-58
2023/03/05 13:18:07;;;;;;;2.20;0.70;;;;;;;;;;5095155;28;20055;-59
2023/03/05 13:20:38;;;;;;;4.60;0.95;;;;;;;;;;5078064;28;20113;-57
2023/03/05 13:23:05;;;;;;;3.50;0.65;;;;;;;;;;5095263;27;20561;-57
2023/03/05 13:25:31;;;;;;;1.70;0.47;;;;;;;;;;5115424;27;20099;-56
2023/03/05 13:28:04;;;;;;;6.47;0.95;;;;;;;;;;5133217;27;20416;-57
2023/03/05 13:30:30;;;;;;;4.38;0.90;;;;;;;;;;5110705;28;20043;-56
2023/03/05 13:33:01;;;;;;;4.35;1.23;;;;;;;;;;5113170;28;20054;-58
2023/03/05 13:35:28;;;;;;;7.28;0.80;;;;;;;;;;5112649;28;20078;-56
2023/03/05 13:37:54;;;;;;;4.90;0.95;;;;;;;;;;5114341;27;20035;-56
2023/03/05 13:40:30;;;;;;;4.80;1.00;;;;;;;;;;5126723;27;20042;-64
2023/03/05 13:43:10;;;;;;;3.03;0.60;;;;;;;;;;5113201;28;20040;-55
2023/03/05 13:45:38;;;;;;;4.45;0.68;;;;;;;;;;5094898;28;20054;-57
2023/03/05 13:48:05;;;;;;;2.15;0.60;;;;;;;;;;5112503;28;20044;-56
2023/03/05 13:50:39;;;;;;;2.70;0.60;;;;;;;;;;5112791;28;20047;-57
2023/03/05 13:53:20;;;;;;;7.75;1.30;;;;;;;;;;5131613;27;20049;-56
2023/03/05 13:55:47;;;;;;;5.85;0.90;;;;;;;;;;5113751;28;20047;-61
2023/03/05 13:58:55;;;;;;;8.85;2.83;;;8.20;99.90;;;;;;5132214;27;20035;-57
2023/03/05 14:01:24;;;;;;;4.88;0.70;;;;;;;;;;5083612;28;20047;-57
2023/03/05 14:03:51;;;;;;;4.13;0.75;;;;;;;;;;5098179;28;20043;-58
2023/03/05 14:06:19;;;;;;;4.35;1.08;;;;;;;;;;5132364;28;20106;-57
2023/03/05 14:08:49;;;;;;;4.22;0.90;;;;;;;;;;5114754;28;20483;-56
2023/03/05 14:11:16;;;;;;;3.67;0.80;;;;;;;;;;5113975;28;20055;-57
2023/03/05 14:13:43;;;;;;;7.53;1.30;;;;;;;;;;5113745;28;20475;-56
2023/03/05 14:16:11;;;;;;;3.95;0.77;;;;;;;;;;5112766;28;20050;-57
2023/03/05 14:18:38;;;;;;;3.05;0.40;;;;;;;;;;5094283;28;20055;-57
2023/03/05 14:21:09;;;;;;;5.63;0.63;;;;;;;;;;5094435;28;20044;-56
2023/03/05 14:23:38;;;;;;;4.50;0.70;;;;;;;;;;5077275;28;20051;-57
2023/03/05 14:26:22;;;;;;;7.07;0.82;;;7.90;99.90;;;;;;5078381;27;20039;-54
2023/03/05 14:28:53;;;;;;;5.88;0.50;;;;;;;;;;5094519;28;20043;-57
2023/03/05 14:31:19;;;;;;;6.00;0.98;;;;;;;;;;5113208;28;20063;-56
2023/03/05 14:33:45;;;;;;;5.88;1.10;;;;;;;;;;5094579;28;20086;-57
2023/03/05 14:36:12;;;;;;;2.70;0.55;;;;;;;;;;5094009;28;20040;-59
2023/03/05 14:38:42;;;;;;;3.55;0.70;;;;;;;;;;5094269;28;20079;-58
2023/03/05 14:41:18;;;;;;;2.25;0.60;;;;;;;;;;5121639;28;20118;-57
2023/03/05 14:43:44;;;;;;;3.35;0.93;;;;;;;;;;5118688;28;20040;-56
2023/03/05 14:46:14;;;;;;;3.80;1.58;;;;;;;;;;5097439;28;20054;-58
2023/03/05 14:48:40;;;;;;;3.30;1.00;;;;;;;;;;5132310;27;20039;-57